createdAt,value
2019-04-27T00:03:13.216Z,55.20
2019-04-27T00:08:38.844Z,55.20
2019-04-27T00:13:41.689Z,54.90
2019-04-27T00:19:03.948Z,54.80
2019-04-27T00:24:07.816Z,55.00
2019-04-27T00:29:14.081Z,55.20
2019-04-27T00:34:17.886Z,54.70
2019-04-27T00:39:29.491Z,54.50
2019-04-27T00:44:33.855Z,54.40
2019-04-27T00:49:37.671Z,54.40
2019-04-27T00:54:41.478Z,54.40
2019-04-27T01:00:05.164Z,54.20
2019-04-27T01:05:29.326Z,54.40
2019-04-27T01:10:33.564Z,54.20
2019-04-27T01:15:37.384Z,54.20
2019-04-27T01:20:41.176Z,54.10
2019-04-27T01:26:03.872Z,54.00
2019-04-27T01:31:10.165Z,53.90
2019-04-27T01:36:13.868Z,53.90
2019-04-27T01:41:19.136Z,53.90
2019-04-27T01:46:22.910Z,53.80
2019-04-27T01:51:26.578Z,53.70
2019-04-27T01:56:30.310Z,53.60
2019-04-27T02:01:41.969Z,53.70
2019-04-27T02:06:48.717Z,53.60
2019-04-27T02:11:52.615Z,53.50
2019-04-27T02:16:56.331Z,53.50
2019-04-27T02:21:59.998Z,53.50
2019-04-27T02:27:03.671Z,53.40
2019-04-27T02:32:23.763Z,53.40
2019-04-27T02:37:30.200Z,53.40
2019-04-27T02:42:42.230Z,53.30
2019-04-27T02:47:46.308Z,53.30
2019-04-27T02:52:50.277Z,53.30
2019-04-27T02:57:54.054Z,53.20
2019-04-27T03:03:02.515Z,53.20
2019-04-27T03:08:06.187Z,53.10
2019-04-27T03:13:20.067Z,53.10
2019-04-27T03:18:45.904Z,53.10
2019-04-27T03:23:50.194Z,53.00
2019-04-27T03:28:54.371Z,53.00
2019-04-27T03:34:00.277Z,53.00
2019-04-27T03:39:03.758Z,53.00
2019-04-27T03:44:09.463Z,53.00
2019-04-27T03:49:28.185Z,53.00
2019-04-27T03:54:50.438Z,53.00
2019-04-27T04:00:06.008Z,53.00
2019-04-27T04:05:10.045Z,52.90
2019-04-27T04:10:14.135Z,52.80
2019-04-27T04:15:26.758Z,52.80
2019-04-27T04:20:30.714Z,52.80
2019-04-27T04:25:34.527Z,52.70
2019-04-27T04:30:40.218Z,52.70
2019-04-27T04:35:44.083Z,52.70
2019-04-27T04:40:53.728Z,52.60
2019-04-27T04:46:16.655Z,52.70
2019-04-27T04:51:20.360Z,52.60
2019-04-27T04:56:24.047Z,52.60
2019-04-27T05:01:29.949Z,52.60
2019-04-27T05:06:33.327Z,52.40
2019-04-27T05:11:37.078Z,52.50
2019-04-27T05:16:40.845Z,52.50
2019-04-27T05:21:44.507Z,52.40
2019-04-27T05:26:48.805Z,52.30
2019-04-27T05:31:52.733Z,52.40
2019-04-27T05:36:56.503Z,52.30
2019-04-27T05:42:00.202Z,52.30
2019-04-27T05:47:21.501Z,52.30
2019-04-27T05:52:31.409Z,52.30
2019-04-27T05:57:35.517Z,52.80
2019-04-27T06:02:39.811Z,53.60
2019-04-27T06:07:43.789Z,53.50
2019-04-27T06:12:48.582Z,53.50
2019-04-27T06:17:52.463Z,55.20
2019-04-27T06:22:56.237Z,54.30
2019-04-27T06:27:59.963Z,53.40
2019-04-27T06:33:03.804Z,53.20
2019-04-27T06:38:07.527Z,53.00
2019-04-27T06:43:12.578Z,53.00
2019-04-27T06:48:16.379Z,52.90
2019-04-27T06:53:20.211Z,53.20
2019-04-27T06:58:23.988Z,53.20
2019-04-27T07:03:28.941Z,53.20
2019-04-27T07:08:33.024Z,53.70
2019-04-27T07:13:36.858Z,53.50
2019-04-27T07:18:40.636Z,53.50
2019-04-27T07:23:59.802Z,53.50
2019-04-27T07:29:03.780Z,54.60
2019-04-27T07:34:09.193Z,54.50
2019-04-27T07:39:13.192Z,53.80
2019-04-27T07:44:35.248Z,53.70
2019-04-27T07:49:39.184Z,53.70
2019-04-27T07:54:43.047Z,53.90
2019-04-27T07:59:46.863Z,53.90
2019-04-27T08:04:50.669Z,53.80
2019-04-27T08:09:54.421Z,53.90
2019-04-27T08:15:03.041Z,53.70
2019-04-27T08:20:06.864Z,53.70
2019-04-27T08:25:10.653Z,53.80
2019-04-27T08:30:36.597Z,53.60
2019-04-27T08:35:42.381Z,53.60
2019-04-27T08:40:46.074Z,53.50
2019-04-27T08:45:49.871Z,53.60
2019-04-27T08:50:53.584Z,53.70
2019-04-27T08:55:59.058Z,54.80
2019-04-27T09:01:03.193Z,54.70
2019-04-27T09:06:26.390Z,55.00
2019-04-27T09:11:52.485Z,55.20
2019-04-27T09:17:31.009Z,54.70
2019-04-27T09:22:35.014Z,55.20
2019-04-27T09:27:39.482Z,55.70
2019-04-27T09:32:43.272Z,55.70
2019-04-27T09:37:46.975Z,55.80
2019-04-27T09:42:50.766Z,59.40
2019-04-27T09:47:56.177Z,55.70
2019-04-27T09:53:00.251Z,59.50
2019-04-27T09:58:05.670Z,61.40
2019-04-27T10:03:09.661Z,60.90
2019-04-27T10:08:14.508Z,60.10
2019-04-27T10:13:18.454Z,60.20
2019-04-27T10:18:22.271Z,59.70
2019-04-27T10:23:26.160Z,59.60
2019-04-27T10:28:29.978Z,59.60
2019-04-27T10:33:35.760Z,59.40
2019-04-27T10:38:39.375Z,59.30
2019-04-27T10:43:43.297Z,58.80
2019-04-27T10:48:47.135Z,58.90
2019-04-27T10:53:52.180Z,57.80
2019-04-27T10:58:56.030Z,57.70
2019-04-27T11:04:22.028Z,57.50
2019-04-27T11:09:26.395Z,58.20
2019-04-27T11:14:30.444Z,58.50
2019-04-27T11:19:35.731Z,58.00
2019-04-27T11:24:39.895Z,58.10
2019-04-27T11:29:43.737Z,58.10
2019-04-27T11:35:15.605Z,57.70
2019-04-27T11:40:20.178Z,57.20
2019-04-27T11:45:24.084Z,56.80
2019-04-27T11:50:27.990Z,56.70
2019-04-27T11:55:31.974Z,56.60
2019-04-27T12:00:36.442Z,56.50
2019-04-27T12:05:40.351Z,56.70
2019-04-27T12:10:46.425Z,56.70
2019-04-27T12:15:50.275Z,56.70
2019-04-27T12:20:55.865Z,56.40
2019-04-27T12:25:59.855Z,56.30
2019-04-27T12:31:09.024Z,56.20
2019-04-27T12:36:13.086Z,56.20
2019-04-27T12:41:17.390Z,56.20
2019-04-27T12:46:24.146Z,56.20
2019-04-27T12:51:28.179Z,56.20
2019-04-27T12:56:50.194Z,56.00
2019-04-27T13:01:56.229Z,56.20
2019-04-27T13:07:06.618Z,57.00
2019-04-27T13:12:10.547Z,56.50
2019-04-27T13:17:14.322Z,56.10
2019-04-27T13:22:18.279Z,56.10
2019-04-27T13:27:23.104Z,56.10
2019-04-27T13:32:28.387Z,56.30
2019-04-27T13:37:39.068Z,56.20
2019-04-27T13:43:08.223Z,56.80
2019-04-27T13:48:29.773Z,56.70
2019-04-27T13:53:36.364Z,57.10
2019-04-27T13:58:40.399Z,56.90
2019-04-27T14:03:45.180Z,56.60
2019-04-27T14:08:49.114Z,56.70
2019-04-27T14:13:52.975Z,56.60
2019-04-27T14:18:56.807Z,56.20
2019-04-27T14:24:00.547Z,56.10
2019-04-27T14:29:04.358Z,56.60
2019-04-27T14:34:09.129Z,56.50
2019-04-27T14:39:14.114Z,56.30
2019-04-27T14:44:18.714Z,56.00
2019-04-27T14:49:22.767Z,57.30
2019-04-27T14:54:26.584Z,58.00
2019-04-27T14:59:30.462Z,57.70
2019-04-27T15:04:34.243Z,58.10
2019-04-27T15:09:38.219Z,58.10
2019-04-27T15:14:43.523Z,57.50
2019-04-27T15:19:53.876Z,57.80
2019-04-27T15:25:12.455Z,57.60
2019-04-27T15:30:11.140Z,58.00
2019-04-27T15:35:24.981Z,57.30
2019-04-27T15:40:49.339Z,57.80
2019-04-27T15:45:57.738Z,57.30
2019-04-27T15:51:03.040Z,57.40
2019-04-27T15:56:05.129Z,57.00
2019-04-27T16:01:11.598Z,57.50
2019-04-27T16:06:15.090Z,57.10
2019-04-27T16:11:19.787Z,56.70
2019-04-27T16:16:24.446Z,56.80
2019-04-27T16:21:31.529Z,56.40
2019-04-27T16:26:34.796Z,58.30
2019-04-27T16:31:38.652Z,58.70
2019-04-27T16:36:43.574Z,57.90
2019-04-27T16:41:49.998Z,57.40
2019-04-27T16:46:53.618Z,56.70
2019-04-27T16:51:59.062Z,56.60
2019-04-27T16:57:05.370Z,56.60
2019-04-27T17:02:08.692Z,56.70
2019-04-27T17:07:12.472Z,56.80
2019-04-27T17:12:18.036Z,56.50
2019-04-27T17:17:31.945Z,56.50
2019-04-27T17:22:35.735Z,56.30
2019-04-27T17:27:44.533Z,56.20
2019-04-27T17:33:01.507Z,56.20
2019-04-27T17:38:10.406Z,56.00
2019-04-27T17:43:10.659Z,55.90
2019-04-27T17:48:14.456Z,55.70
2019-04-27T17:53:19.909Z,55.70
2019-04-27T17:58:23.606Z,56.30
2019-04-27T18:03:28.489Z,55.50
2019-04-27T18:08:32.378Z,55.20
2019-04-27T18:13:36.315Z,55.00
2019-04-27T18:19:07.970Z,54.90
2019-04-27T18:24:12.536Z,54.90
2019-04-27T18:29:18.317Z,54.70
2019-04-27T18:34:21.714Z,54.30
2019-04-27T18:39:25.626Z,54.40
2019-04-27T18:44:31.915Z,54.40
2019-04-27T18:49:54.132Z,54.70
2019-04-27T18:54:58.063Z,54.90
2019-04-27T19:00:01.842Z,54.70
2019-04-27T19:05:05.766Z,54.70
2019-04-27T19:10:09.547Z,54.60
2019-04-27T19:15:13.439Z,54.60
2019-04-27T19:20:20.270Z,54.60
2019-04-27T19:25:32.212Z,54.60
2019-04-27T19:30:40.836Z,54.50
2019-04-27T19:35:44.718Z,54.50
2019-04-27T19:40:48.632Z,54.50
2019-04-27T19:45:52.658Z,54.90
2019-04-27T19:50:56.466Z,55.70
2019-04-27T19:56:04.154Z,55.20
2019-04-27T20:01:14.536Z,55.10
2019-04-27T20:06:18.808Z,55.30
2019-04-27T20:11:23.134Z,54.90
2019-04-27T20:16:27.049Z,55.00
2019-04-27T20:21:31.001Z,54.80
2019-04-27T20:26:34.790Z,55.00
2019-04-27T20:31:38.680Z,55.00
2019-04-27T20:36:44.388Z,54.80
2019-04-27T20:41:48.214Z,54.70
2019-04-27T20:46:52.288Z,54.60
2019-04-27T20:52:11.189Z,54.50
2019-04-27T20:57:15.151Z,54.40
2019-04-27T21:02:52.008Z,54.30
2019-04-27T21:08:01.347Z,54.40
2019-04-27T21:13:05.491Z,55.20
2019-04-27T21:18:09.228Z,58.10
2019-04-27T21:23:12.995Z,57.40
2019-04-27T21:28:19.051Z,57.40
2019-04-27T21:33:22.585Z,56.70
2019-04-27T21:38:26.756Z,56.40
2019-04-27T21:43:51.221Z,56.10
2019-04-27T21:48:55.193Z,56.30
2019-04-27T21:54:17.948Z,55.60
2019-04-27T21:59:25.448Z,55.00
2019-04-27T22:04:31.370Z,54.90
2019-04-27T22:09:34.965Z,54.70
2019-04-27T22:14:39.037Z,54.40
2019-04-27T22:19:43.061Z,54.20
2019-04-27T22:24:46.848Z,54.10
2019-04-27T22:29:50.811Z,53.80
2019-04-27T22:34:57.588Z,53.60
2019-04-27T22:40:38.974Z,53.40
2019-04-27T22:45:44.345Z,53.40
2019-04-27T22:50:48.377Z,53.70
2019-04-27T22:56:11.183Z,53.20
2019-04-27T23:01:30.130Z,52.90
2019-04-27T23:06:33.914Z,52.80
2019-04-27T23:11:37.766Z,53.40
2019-04-27T23:16:43.414Z,52.70
2019-04-27T23:21:48.361Z,52.60
2019-04-27T23:26:52.188Z,52.40
2019-04-27T23:32:02.342Z,52.40
2019-04-27T23:37:06.120Z,52.30
2019-04-27T23:42:11.553Z,52.30
2019-04-27T23:47:15.260Z,52.30
2019-04-27T23:52:23.841Z,52.30
2019-04-27T23:57:27.573Z,52.10
